sensor_id;sensor_type;location;lat;lon;timestamp;pressure;altitude;pressure_sealevel;temperature;humidity
40872;BME280;26591;43.264;26.940;2023-07-30T00:00:34;98678.97;;;23.43;55.58
40872;BME280;26591;43.264;26.940;2023-07-30T00:03:00;98680.22;;;23.30;55.41
40872;BME280;26591;43.264;26.940;2023-07-30T00:05:25;98682.38;;;23.28;55.51
40872;BME280;26591;43.264;26.940;2023-07-30T00:07:51;98685.31;;;23.26;56.18
40872;BME280;26591;43.264;26.940;2023-07-30T00:10:16;98684.00;;;23.29;55.77
40872;BME280;26591;43.264;26.940;2023-07-30T00:12:42;98687.31;;;23.09;56.35
40872;BME280;26591;43.264;26.940;2023-07-30T00:15:08;98676.81;;;23.12;56.45
40872;BME280;26591;43.264;26.940;2023-07-30T00:17:34;98670.19;;;22.93;56.82
40872;BME280;26591;43.264;26.940;2023-07-30T00:19:59;98677.13;;;22.83;57.48
40872;BME280;26591;43.264;26.940;2023-07-30T00:22:27;98662.75;;;22.50;57.93
40872;BME280;26591;43.264;26.940;2023-07-30T00:24:52;98666.56;;;22.82;57.38
40872;BME280;26591;43.264;26.940;2023-07-30T00:27:20;98666.22;;;22.73;57.73
40872;BME280;26591;43.264;26.940;2023-07-30T00:29:45;98660.72;;;22.63;57.81
40872;BME280;26591;43.264;26.940;2023-07-30T00:32:10;98658.88;;;22.41;58.41
40872;BME280;26591;43.264;26.940;2023-07-30T00:34:36;98655.59;;;22.39;58.43
40872;BME280;26591;43.264;26.940;2023-07-30T00:37:02;98659.06;;;22.34;59.00
40872;BME280;26591;43.264;26.940;2023-07-30T00:39:27;98666.03;;;22.30;59.49
40872;BME280;26591;43.264;26.940;2023-07-30T00:41:52;98662.00;;;22.33;59.37
40872;BME280;26591;43.264;26.940;2023-07-30T00:44:18;98664.50;;;22.39;59.63
40872;BME280;26591;43.264;26.940;2023-07-30T00:46:43;98663.38;;;22.35;59.66
40872;BME280;26591;43.264;26.940;2023-07-30T00:49:09;98657.84;;;22.42;59.39
40872;BME280;26591;43.264;26.940;2023-07-30T00:51:34;98663.78;;;22.71;59.42
40872;BME280;26591;43.264;26.940;2023-07-30T00:54:00;98658.31;;;23.21;58.67
40872;BME280;26591;43.264;26.940;2023-07-30T00:56:26;98662.63;;;23.60;57.67
40872;BME280;26591;43.264;26.940;2023-07-30T00:58:52;98666.00;;;23.88;55.52
40872;BME280;26591;43.264;26.940;2023-07-30T01:01:18;98659.31;;;24.01;55.41
40872;BME280;26591;43.264;26.940;2023-07-30T01:03:44;98663.22;;;24.26;55.26
40872;BME280;26591;43.264;26.940;2023-07-30T01:06:10;98662.72;;;24.39;54.00
40872;BME280;26591;43.264;26.940;2023-07-30T01:08:35;98661.59;;;24.35;54.50
40872;BME280;26591;43.264;26.940;2023-07-30T01:11:02;98665.59;;;24.12;53.78
40872;BME280;26591;43.264;26.940;2023-07-30T01:13:28;98674.41;;;23.49;55.75
40872;BME280;26591;43.264;26.940;2023-07-30T01:15:54;98673.09;;;23.51;56.18
40872;BME280;26591;43.264;26.940;2023-07-30T01:18:19;98672.44;;;23.34;56.19
40872;BME280;26591;43.264;26.940;2023-07-30T01:20:45;98672.94;;;23.30;56.12
40872;BME280;26591;43.264;26.940;2023-07-30T01:23:10;98666.69;;;22.97;56.49
40872;BME280;26591;43.264;26.940;2023-07-30T01:26:02;98668.03;;;23.22;56.29
40872;BME280;26591;43.264;26.940;2023-07-30T01:28:42;98671.66;;;23.11;56.15
40872;BME280;26591;43.264;26.940;2023-07-30T01:31:09;98660.50;;;23.29;55.71
40872;BME280;26591;43.264;26.940;2023-07-30T01:33:37;98673.59;;;23.48;55.88
40872;BME280;26591;43.264;26.940;2023-07-30T01:36:05;98662.28;;;23.51;55.83
40872;BME280;26591;43.264;26.940;2023-07-30T01:38:32;98670.56;;;23.39;55.99
40872;BME280;26591;43.264;26.940;2023-07-30T01:40:57;98669.50;;;23.45;55.59
40872;BME280;26591;43.264;26.940;2023-07-30T01:43:23;98669.66;;;23.23;56.27
40872;BME280;26591;43.264;26.940;2023-07-30T01:45:48;98668.09;;;23.33;56.03
40872;BME280;26591;43.264;26.940;2023-07-30T01:48:14;98672.44;;;23.39;56.01
40872;BME280;26591;43.264;26.940;2023-07-30T01:50:39;98678.09;;;23.75;55.63
40872;BME280;26591;43.264;26.940;2023-07-30T01:53:05;98665.84;;;23.62;55.72
40872;BME280;26591;43.264;26.940;2023-07-30T01:55:30;98677.16;;;23.54;55.86
40872;BME280;26591;43.264;26.940;2023-07-30T01:57:56;98668.59;;;23.67;55.45
40872;BME280;26591;43.264;26.940;2023-07-30T02:00:21;98670.53;;;23.77;55.29
40872;BME280;26591;43.264;26.940;2023-07-30T02:02:47;98674.44;;;24.02;54.75
40872;BME280;26591;43.264;26.940;2023-07-30T02:05:13;98672.47;;;23.92;54.76
40872;BME280;26591;43.264;26.940;2023-07-30T02:07:38;98668.13;;;23.81;55.43
40872;BME280;26591;43.264;26.940;2023-07-30T02:10:04;98663.56;;;23.91;55.39
40872;BME280;26591;43.264;26.940;2023-07-30T02:12:29;98659.81;;;23.92;54.76
40872;BME280;26591;43.264;26.940;2023-07-30T02:14:55;98657.44;;;24.01;55.35
40872;BME280;26591;43.264;26.940;2023-07-30T02:17:21;98661.22;;;24.00;55.28
40872;BME280;26591;43.264;26.940;2023-07-30T02:19:46;98660.03;;;23.86;55.51
40872;BME280;26591;43.264;26.940;2023-07-30T02:22:12;98651.38;;;23.84;55.00
40872;BME280;26591;43.264;26.940;2023-07-30T02:24:37;98659.44;;;23.78;55.19
40872;BME280;26591;43.264;26.940;2023-07-30T02:27:03;98656.22;;;23.82;55.66
40872;BME280;26591;43.264;26.940;2023-07-30T02:29:28;98663.00;;;23.84;55.37
40872;BME280;26591;43.264;26.940;2023-07-30T02:31:54;98660.00;;;23.33;56.26
40872;BME280;26591;43.264;26.940;2023-07-30T02:34:19;98657.97;;;23.50;56.12
40872;BME280;26591;43.264;26.940;2023-07-30T02:36:45;98665.13;;;23.34;56.56
40872;BME280;26591;43.264;26.940;2023-07-30T02:39:10;98664.25;;;23.23;56.70
40872;BME280;26591;43.264;26.940;2023-07-30T02:41:36;98667.91;;;23.12;56.75
40872;BME280;26591;43.264;26.940;2023-07-30T02:44:01;98670.09;;;23.15;56.62
40872;BME280;26591;43.264;26.940;2023-07-30T02:46:28;98673.53;;;23.38;57.09
40872;BME280;26591;43.264;26.940;2023-07-30T02:48:53;98666.00;;;23.45;56.42
40872;BME280;26591;43.264;26.940;2023-07-30T02:51:19;98662.56;;;23.55;55.79
40872;BME280;26591;43.264;26.940;2023-07-30T02:53:44;98662.63;;;23.65;55.20
40872;BME280;26591;43.264;26.940;2023-07-30T02:56:10;98679.16;;;23.74;54.97
40872;BME280;26591;43.264;26.940;2023-07-30T02:58:35;98680.91;;;23.96;55.21
40872;BME280;26591;43.264;26.940;2023-07-30T03:01:07;98683.44;;;24.13;54.01
40872;BME280;26591;43.264;26.940;2023-07-30T03:03:34;98676.69;;;24.20;53.91
40872;BME280;26591;43.264;26.940;2023-07-30T03:05:59;98681.88;;;24.32;53.88
40872;BME280;26591;43.264;26.940;2023-07-30T03:08:24;98696.22;;;24.38;54.14
40872;BME280;26591;43.264;26.940;2023-07-30T03:10:50;98685.66;;;24.31;53.67
40872;BME280;26591;43.264;26.940;2023-07-30T03:13:15;98689.78;;;24.49;53.86
40872;BME280;26591;43.264;26.940;2023-07-30T03:15:41;98686.06;;;24.87;52.45
40872;BME280;26591;43.264;26.940;2023-07-30T03:18:06;98687.19;;;25.11;51.77
40872;BME280;26591;43.264;26.940;2023-07-30T03:20:32;98689.06;;;25.26;52.34
40872;BME280;26591;43.264;26.940;2023-07-30T03:22:58;98690.09;;;25.77;51.02
40872;BME280;26591;43.264;26.940;2023-07-30T03:25:23;98693.19;;;26.26;50.84
40872;BME280;26591;43.264;26.940;2023-07-30T03:27:49;98688.69;;;26.61;50.02
40872;BME280;26591;43.264;26.940;2023-07-30T03:30:14;98693.16;;;26.86;49.82
40872;BME280;26591;43.264;26.940;2023-07-30T03:32:40;98691.13;;;27.37;49.44
40872;BME280;26591;43.264;26.940;2023-07-30T03:35:07;98691.84;;;27.18;49.18
40872;BME280;26591;43.264;26.940;2023-07-30T03:37:38;98690.59;;;27.05;49.78
40872;BME280;26591;43.264;26.940;2023-07-30T03:40:04;98689.59;;;26.91;50.46
40872;BME280;26591;43.264;26.940;2023-07-30T03:42:30;98698.75;;;27.00;50.23
40872;BME280;26591;43.264;26.940;2023-07-30T03:44:55;98695.66;;;27.17;49.69
40872;BME280;26591;43.264;26.940;2023-07-30T03:47:21;98685.22;;;27.30;48.60
40872;BME280;26591;43.264;26.940;2023-07-30T03:49:46;98679.44;;;27.36;48.81
40872;BME280;26591;43.264;26.940;2023-07-30T03:52:12;98682.13;;;27.71;48.76
40872;BME280;26591;43.264;26.940;2023-07-30T03:54:37;98688.47;;;28.15;47.10
40872;BME280;26591;43.264;26.940;2023-07-30T03:57:03;98695.50;;;28.59;46.68
40872;BME280;26591;43.264;26.940;2023-07-30T03:59:29;98691.69;;;28.80;46.25
40872;BME280;26591;43.264;26.940;2023-07-30T04:01:54;98699.44;;;29.05;45.20
40872;BME280;26591;43.264;26.940;2023-07-30T04:04:20;98698.94;;;29.03;45.82
40872;BME280;26591;43.264;26.940;2023-07-30T04:06:46;98702.41;;;29.42;45.05
40872;BME280;26591;43.264;26.940;2023-07-30T04:09:11;98703.47;;;30.16;44.21
40872;BME280;26591;43.264;26.940;2023-07-30T04:11:36;98709.06;;;30.11;43.82
40872;BME280;26591;43.264;26.940;2023-07-30T04:14:02;98707.97;;;30.77;42.69
40872;BME280;26591;43.264;26.940;2023-07-30T04:16:30;98705.22;;;30.77;42.21
40872;BME280;26591;43.264;26.940;2023-07-30T04:18:55;98709.47;;;31.05;42.05
40872;BME280;26591;43.264;26.940;2023-07-30T04:21:21;98713.31;;;31.27;41.19
40872;BME280;26591;43.264;26.940;2023-07-30T04:23:46;98708.00;;;31.22;41.27
40872;BME280;26591;43.264;26.940;2023-07-30T04:26:13;98713.28;;;31.73;40.78
40872;BME280;26591;43.264;26.940;2023-07-30T04:28:38;98710.81;;;32.03;40.00
40872;BME280;26591;43.264;26.940;2023-07-30T04:31:04;98719.97;;;32.56;39.73
40872;BME280;26591;43.264;26.940;2023-07-30T04:33:29;98715.47;;;32.78;38.45
40872;BME280;26591;43.264;26.940;2023-07-30T04:35:55;98721.44;;;32.89;39.17
40872;BME280;26591;43.264;26.940;2023-07-30T04:38:20;98723.25;;;32.93;39.32
40872;BME280;26591;43.264;26.940;2023-07-30T04:40:46;98726.28;;;33.18;39.04
40872;BME280;26591;43.264;26.940;2023-07-30T04:43:11;98725.66;;;33.04;39.79
40872;BME280;26591;43.264;26.940;2023-07-30T04:45:37;98722.06;;;33.21;38.82
40872;BME280;26591;43.264;26.940;2023-07-30T04:48:02;98722.91;;;32.95;38.94
40872;BME280;26591;43.264;26.940;2023-07-30T04:50:28;98728.53;;;33.16;38.68
40872;BME280;26591;43.264;26.940;2023-07-30T04:52:53;98725.94;;;33.11;38.80
40872;BME280;26591;43.264;26.940;2023-07-30T04:55:19;98725.97;;;32.93;39.37
40872;BME280;26591;43.264;26.940;2023-07-30T04:57:44;98738.66;;;32.63;40.11
40872;BME280;26591;43.264;26.940;2023-07-30T05:00:10;98733.66;;;32.47;40.53
40872;BME280;26591;43.264;26.940;2023-07-30T05:02:36;98738.66;;;32.63;40.24
40872;BME280;26591;43.264;26.940;2023-07-30T05:05:02;98734.31;;;32.70;39.63
40872;BME280;26591;43.264;26.940;2023-07-30T05:07:27;98742.34;;;32.40;40.11
40872;BME280;26591;43.264;26.940;2023-07-30T05:09:53;98736.25;;;32.70;39.95
40872;BME280;26591;43.264;26.940;2023-07-30T05:12:18;98740.00;;;33.09;39.39
40872;BME280;26591;43.264;26.940;2023-07-30T05:14:44;98738.84;;;33.10;38.66
40872;BME280;26591;43.264;26.940;2023-07-30T05:17:09;98742.19;;;32.72;39.46
40872;BME280;26591;43.264;26.940;2023-07-30T05:19:34;98741.75;;;32.87;39.83
40872;BME280;26591;43.264;26.940;2023-07-30T05:22:00;98740.16;;;32.95;38.64
40872;BME280;26591;43.264;26.940;2023-07-30T05:24:27;98734.66;;;33.13;38.28
40872;BME280;26591;43.264;26.940;2023-07-30T05:26:52;98734.22;;;32.93;39.00
40872;BME280;26591;43.264;26.940;2023-07-30T05:29:18;98738.22;;;33.05;38.60
40872;BME280;26591;43.264;26.940;2023-07-30T05:31:43;98741.72;;;33.31;39.11
40872;BME280;26591;43.264;26.940;2023-07-30T05:34:09;98742.38;;;33.46;38.79
40872;BME280;26591;43.264;26.940;2023-07-30T05:36:35;98750.69;;;33.76;38.07
40872;BME280;26591;43.264;26.940;2023-07-30T05:39:00;98744.34;;;33.84;37.74
40872;BME280;26591;43.264;26.940;2023-07-30T05:41:25;98742.59;;;34.18;37.62
40872;BME280;26591;43.264;26.940;2023-07-30T05:43:51;98747.88;;;34.02;38.03
40872;BME280;26591;43.264;26.940;2023-07-30T05:46:16;98749.22;;;34.17;36.71
40872;BME280;26591;43.264;26.940;2023-07-30T05:48:42;98754.19;;;34.24;37.40
40872;BME280;26591;43.264;26.940;2023-07-30T05:51:07;98756.06;;;34.11;37.15
40872;BME280;26591;43.264;26.940;2023-07-30T05:53:33;98750.75;;;33.32;39.08
40872;BME280;26591;43.264;26.940;2023-07-30T05:55:58;98747.44;;;34.21;37.40
40872;BME280;26591;43.264;26.940;2023-07-30T05:58:24;98746.97;;;34.19;36.78
40872;BME280;26591;43.264;26.940;2023-07-30T06:00:49;98746.88;;;34.37;36.24
40872;BME280;26591;43.264;26.940;2023-07-30T06:03:15;98752.13;;;34.72;36.21
40872;BME280;26591;43.264;26.940;2023-07-30T06:05:41;98752.47;;;34.92;35.54
40872;BME280;26591;43.264;26.940;2023-07-30T06:08:07;98744.91;;;34.67;37.05
40872;BME280;26591;43.264;26.940;2023-07-30T06:10:37;98741.50;;;34.49;37.02
40872;BME280;26591;43.264;26.940;2023-07-30T06:13:06;98735.28;;;34.61;36.78
40872;BME280;26591;43.264;26.940;2023-07-30T06:15:32;98741.44;;;35.01;35.90
40872;BME280;26591;43.264;26.940;2023-07-30T06:17:58;98736.72;;;34.29;36.55
40872;BME280;26591;43.264;26.940;2023-07-30T06:20:23;98737.88;;;34.58;36.61
40872;BME280;26591;43.264;26.940;2023-07-30T06:22:49;98737.75;;;35.30;36.01
40872;BME280;26591;43.264;26.940;2023-07-30T06:25:15;98739.03;;;35.33;35.80
40872;BME280;26591;43.264;26.940;2023-07-30T06:27:40;98744.53;;;34.99;36.04
40872;BME280;26591;43.264;26.940;2023-07-30T06:30:06;98739.41;;;35.10;36.08
40872;BME280;26591;43.264;26.940;2023-07-30T06:32:31;98732.53;;;35.04;36.08
40872;BME280;26591;43.264;26.940;2023-07-30T06:34:57;98725.94;;;34.75;36.66
40872;BME280;26591;43.264;26.940;2023-07-30T06:37:23;98724.94;;;34.79;35.87
40872;BME280;26591;43.264;26.940;2023-07-30T06:39:48;98728.69;;;34.53;36.40
40872;BME280;26591;43.264;26.940;2023-07-30T06:42:14;98724.88;;;35.09;36.10
40872;BME280;26591;43.264;26.940;2023-07-30T06:44:40;98727.53;;;35.52;35.37
40872;BME280;26591;43.264;26.940;2023-07-30T06:47:05;98729.97;;;35.32;34.50
40872;BME280;26591;43.264;26.940;2023-07-30T06:49:31;98719.38;;;35.09;35.32
40872;BME280;26591;43.264;26.940;2023-07-30T06:51:59;98725.81;;;35.47;34.73
40872;BME280;26591;43.264;26.940;2023-07-30T06:54:24;98722.81;;;35.52;34.44
40872;BME280;26591;43.264;26.940;2023-07-30T06:56:50;98715.13;;;35.12;35.46
40872;BME280;26591;43.264;26.940;2023-07-30T06:59:16;98721.53;;;35.04;35.15
40872;BME280;26591;43.264;26.940;2023-07-30T07:01:41;98720.72;;;34.82;35.71
40872;BME280;26591;43.264;26.940;2023-07-30T07:04:06;98715.34;;;34.86;35.91
40872;BME280;26591;43.264;26.940;2023-07-30T07:06:32;98713.53;;;34.47;36.50
40872;BME280;26591;43.264;26.940;2023-07-30T07:08:57;98708.75;;;34.35;36.52
40872;BME280;26591;43.264;26.940;2023-07-30T07:11:23;98711.66;;;34.39;36.87
40872;BME280;26591;43.264;26.940;2023-07-30T07:13:48;98708.25;;;34.42;35.88
40872;BME280;26591;43.264;26.940;2023-07-30T07:16:14;98710.31;;;34.15;37.19
40872;BME280;26591;43.264;26.940;2023-07-30T07:18:39;98707.88;;;33.92;37.62
40872;BME280;26591;43.264;26.940;2023-07-30T07:21:05;98706.56;;;34.50;36.10
40872;BME280;26591;43.264;26.940;2023-07-30T07:23:30;98711.09;;;34.55;36.64
40872;BME280;26591;43.264;26.940;2023-07-30T07:25:57;98699.63;;;34.95;35.92
40872;BME280;26591;43.264;26.940;2023-07-30T07:28:22;98705.47;;;34.12;36.06
40872;BME280;26591;43.264;26.940;2023-07-30T07:30:48;98699.63;;;34.22;35.71
40872;BME280;26591;43.264;26.940;2023-07-30T07:33:13;98697.25;;;34.42;36.28
40872;BME280;26591;43.264;26.940;2023-07-30T07:35:39;98694.97;;;33.75;34.94
40872;BME280;26591;43.264;26.940;2023-07-30T07:38:05;98698.22;;;32.77;37.53
40872;BME280;26591;43.264;26.940;2023-07-30T07:40:37;98697.28;;;32.64;37.46
40872;BME280;26591;43.264;26.940;2023-07-30T07:43:05;98696.78;;;31.95;37.39
40872;BME280;26591;43.264;26.940;2023-07-30T07:45:30;98700.03;;;31.66;38.48
40872;BME280;26591;43.264;26.940;2023-07-30T07:47:56;98690.66;;;31.99;38.34
40872;BME280;26591;43.264;26.940;2023-07-30T07:50:21;98696.31;;;31.30;38.10
40872;BME280;26591;43.264;26.940;2023-07-30T07:52:47;98684.41;;;31.35;38.76
40872;BME280;26591;43.264;26.940;2023-07-30T07:55:12;98688.59;;;30.87;39.77
40872;BME280;26591;43.264;26.940;2023-07-30T07:57:38;98679.94;;;31.39;39.20
40872;BME280;26591;43.264;26.940;2023-07-30T08:00:04;98684.38;;;31.58;39.05
40872;BME280;26591;43.264;26.940;2023-07-30T08:02:30;98671.06;;;31.33;39.41
40872;BME280;26591;43.264;26.940;2023-07-30T08:04:56;98672.03;;;31.69;39.15
40872;BME280;26591;43.264;26.940;2023-07-30T08:07:21;98669.97;;;31.34;39.20
40872;BME280;26591;43.264;26.940;2023-07-30T08:09:47;98668.03;;;30.67;39.27
40872;BME280;26591;43.264;26.940;2023-07-30T08:12:12;98679.66;;;30.95;38.97
40872;BME280;26591;43.264;26.940;2023-07-30T08:14:39;98677.22;;;31.71;38.40
40872;BME280;26591;43.264;26.940;2023-07-30T08:17:05;98668.59;;;31.55;37.50
40872;BME280;26591;43.264;26.940;2023-07-30T08:19:30;98670.84;;;31.53;38.59
40872;BME280;26591;43.264;26.940;2023-07-30T08:21:57;98669.47;;;32.22;37.29
40872;BME280;26591;43.264;26.940;2023-07-30T08:24:23;98662.38;;;32.03;36.31
40872;BME280;26591;43.264;26.940;2023-07-30T08:26:49;98658.94;;;31.17;37.61
40872;BME280;26591;43.264;26.940;2023-07-30T08:29:14;98661.69;;;31.03;38.04
40872;BME280;26591;43.264;26.940;2023-07-30T08:31:40;98657.19;;;31.21;38.47
40872;BME280;26591;43.264;26.940;2023-07-30T08:34:06;98649.19;;;31.02;37.02
40872;BME280;26591;43.264;26.940;2023-07-30T08:36:32;98655.25;;;30.76;37.30
40872;BME280;26591;43.264;26.940;2023-07-30T08:38:57;98646.69;;;30.69;36.99
40872;BME280;26591;43.264;26.940;2023-07-30T08:41:23;98653.75;;;30.93;37.12
40872;BME280;26591;43.264;26.940;2023-07-30T08:43:49;98648.31;;;31.47;35.52
40872;BME280;26591;43.264;26.940;2023-07-30T08:46:16;98651.66;;;31.44;34.60
40872;BME280;26591;43.264;26.940;2023-07-30T08:48:41;98651.53;;;31.49;35.10
40872;BME280;26591;43.264;26.940;2023-07-30T08:51:08;98656.88;;;31.54;35.35
40872;BME280;26591;43.264;26.940;2023-07-30T08:53:35;98641.97;;;31.29;34.00
40872;BME280;26591;43.264;26.940;2023-07-30T08:56:01;98641.50;;;31.35;35.36
40872;BME280;26591;43.264;26.940;2023-07-30T08:58:28;98640.94;;;31.56;33.52
40872;BME280;26591;43.264;26.940;2023-07-30T09:00:55;98632.72;;;31.56;33.81
40872;BME280;26591;43.264;26.940;2023-07-30T09:03:23;98640.53;;;32.30;33.46
40872;BME280;26591;43.264;26.940;2023-07-30T09:05:50;98635.19;;;32.16;33.99
40872;BME280;26591;43.264;26.940;2023-07-30T09:08:17;98636.84;;;32.52;32.92
40872;BME280;26591;43.264;26.940;2023-07-30T09:10:43;98631.97;;;32.75;33.00
40872;BME280;26591;43.264;26.940;2023-07-30T09:13:08;98635.00;;;32.21;33.68
40872;BME280;26591;43.264;26.940;2023-07-30T09:15:36;98621.53;;;32.86;32.53
40872;BME280;26591;43.264;26.940;2023-07-30T09:18:05;98621.22;;;32.70;32.79
40872;BME280;26591;43.264;26.940;2023-07-30T09:20:41;98627.78;;;33.04;32.54
40872;BME280;26591;43.264;26.940;2023-07-30T09:23:07;98621.78;;;33.11;32.61
40872;BME280;26591;43.264;26.940;2023-07-30T09:25:37;98623.34;;;33.77;31.20
40872;BME280;26591;43.264;26.940;2023-07-30T09:28:03;98615.84;;;34.16;30.60
40872;BME280;26591;43.264;26.940;2023-07-30T09:30:29;98615.63;;;34.00;30.38
40872;BME280;26591;43.264;26.940;2023-07-30T09:32:56;98613.75;;;33.83;30.13
40872;BME280;26591;43.264;26.940;2023-07-30T09:35:24;98609.53;;;33.17;30.10
40872;BME280;26591;43.264;26.940;2023-07-30T09:37:57;98606.22;;;33.80;30.00
40872;BME280;26591;43.264;26.940;2023-07-30T09:40:30;98600.31;;;33.99;30.21
40872;BME280;26591;43.264;26.940;2023-07-30T09:42:57;98602.44;;;33.93;30.54
40872;BME280;26591;43.264;26.940;2023-07-30T09:45:24;98592.19;;;34.24;29.08
40872;BME280;26591;43.264;26.940;2023-07-30T09:47:51;98602.78;;;33.83;29.38
40872;BME280;26591;43.264;26.940;2023-07-30T09:50:17;98599.84;;;34.18;28.25
40872;BME280;26591;43.264;26.940;2023-07-30T09:52:43;98587.66;;;34.28;27.51
40872;BME280;26591;43.264;26.940;2023-07-30T09:55:10;98594.25;;;35.03;27.26
40872;BME280;26591;43.264;26.940;2023-07-30T09:57:36;98596.16;;;35.73;27.17
40872;BME280;26591;43.264;26.940;2023-07-30T10:00:06;98591.91;;;35.76;27.49
40872;BME280;26591;43.264;26.940;2023-07-30T10:02:39;98591.78;;;35.35;28.20
40872;BME280;26591;43.264;26.940;2023-07-30T10:05:17;98581.44;;;35.20;27.55
40872;BME280;26591;43.264;26.940;2023-07-30T10:07:56;98579.41;;;34.83;28.24
40872;BME280;26591;43.264;26.940;2023-07-30T10:10:24;98579.97;;;34.76;29.10
40872;BME280;26591;43.264;26.940;2023-07-30T10:12:52;98572.97;;;34.79;28.18
40872;BME280;26591;43.264;26.940;2023-07-30T10:15:21;98581.91;;;35.09;27.39
40872;BME280;26591;43.264;26.940;2023-07-30T10:17:51;98577.72;;;34.57;28.39
40872;BME280;26591;43.264;26.940;2023-07-30T10:20:22;98559.56;;;34.65;28.17
40872;BME280;26591;43.264;26.940;2023-07-30T10:22:51;98565.38;;;34.63;28.49
40872;BME280;26591;43.264;26.940;2023-07-30T10:25:27;98558.00;;;34.89;28.23
40872;BME280;26591;43.264;26.940;2023-07-30T10:27:53;98557.16;;;35.59;27.80
40872;BME280;26591;43.264;26.940;2023-07-30T10:30:20;98572.38;;;35.81;27.02
40872;BME280;26591;43.264;26.940;2023-07-30T10:33:04;98559.78;;;35.43;26.88
40872;BME280;26591;43.264;26.940;2023-07-30T10:35:42;98556.59;;;35.78;27.55
40872;BME280;26591;43.264;26.940;2023-07-30T10:38:19;98561.22;;;36.43;27.08
40872;BME280;26591;43.264;26.940;2023-07-30T10:41:09;98554.25;;;36.46;26.36
40872;BME280;26591;43.264;26.940;2023-07-30T10:43:40;98547.91;;;36.74;26.14
40872;BME280;26591;43.264;26.940;2023-07-30T10:46:10;98547.88;;;36.29;26.60
40872;BME280;26591;43.264;26.940;2023-07-30T10:48:38;98541.50;;;36.13;26.50
40872;BME280;26591;43.264;26.940;2023-07-30T10:51:09;98535.03;;;36.21;26.07
40872;BME280;26591;43.264;26.940;2023-07-30T10:53:35;98538.53;;;36.34;26.51
40872;BME280;26591;43.264;26.940;2023-07-30T10:56:05;98535.06;;;36.09;26.94
40872;BME280;26591;43.264;26.940;2023-07-30T10:58:33;98527.69;;;35.10;27.71
40872;BME280;26591;43.264;26.940;2023-07-30T11:01:00;98529.22;;;35.44;27.26
40872;BME280;26591;43.264;26.940;2023-07-30T11:03:27;98525.47;;;34.78;27.58
40872;BME280;26591;43.264;26.940;2023-07-30T11:05:54;98527.63;;;34.73;27.43
40872;BME280;26591;43.264;26.940;2023-07-30T11:08:31;98514.53;;;35.40;26.74
40872;BME280;26591;43.264;26.940;2023-07-30T11:10:57;98522.06;;;35.81;26.57
40872;BME280;26591;43.264;26.940;2023-07-30T11:13:23;98512.34;;;35.09;27.08
40872;BME280;26591;43.264;26.940;2023-07-30T11:15:48;98504.44;;;35.32;26.90
40872;BME280;26591;43.264;26.940;2023-07-30T11:18:14;98510.16;;;35.64;26.84
40872;BME280;26591;43.264;26.940;2023-07-30T11:20:40;98504.03;;;35.96;25.99
40872;BME280;26591;43.264;26.940;2023-07-30T11:23:22;98499.69;;;35.95;26.28
40872;BME280;26591;43.264;26.940;2023-07-30T11:25:49;98503.63;;;35.69;26.78
40872;BME280;26591;43.264;26.940;2023-07-30T11:28:37;98499.38;;;35.59;26.57
40872;BME280;26591;43.264;26.940;2023-07-30T11:31:09;98495.97;;;35.25;26.66
40872;BME280;26591;43.264;26.940;2023-07-30T11:33:38;98494.94;;;35.54;26.12
40872;BME280;26591;43.264;26.940;2023-07-30T11:36:07;98495.84;;;36.12;25.95
40872;BME280;26591;43.264;26.940;2023-07-30T11:38:33;98483.41;;;36.46;25.74
40872;BME280;26591;43.264;26.940;2023-07-30T11:41:00;98487.88;;;36.67;25.35
40872;BME280;26591;43.264;26.940;2023-07-30T11:43:26;98481.94;;;36.37;25.15
40872;BME280;26591;43.264;26.940;2023-07-30T11:46:12;98486.81;;;36.27;25.53
40872;BME280;26591;43.264;26.940;2023-07-30T11:48:40;98481.47;;;36.47;25.14
40872;BME280;26591;43.264;26.940;2023-07-30T11:51:05;98481.66;;;35.97;25.89
40872;BME280;26591;43.264;26.940;2023-07-30T11:53:49;98476.03;;;36.22;24.96
40872;BME280;26591;43.264;26.940;2023-07-30T11:56:17;98471.72;;;35.80;25.57
40872;BME280;26591;43.264;26.940;2023-07-30T11:58:43;98471.13;;;35.46;25.48
40872;BME280;26591;43.264;26.940;2023-07-30T12:01:09;98467.41;;;36.52;25.31
40872;BME280;26591;43.264;26.940;2023-07-30T12:03:35;98464.81;;;36.91;24.68
40872;BME280;26591;43.264;26.940;2023-07-30T12:06:04;98447.41;;;36.71;24.55
40872;BME280;26591;43.264;26.940;2023-07-30T12:08:31;98449.03;;;36.88;24.47
40872;BME280;26591;43.264;26.940;2023-07-30T12:11:02;98448.88;;;37.33;24.57
40872;BME280;26591;43.264;26.940;2023-07-30T12:13:28;98452.56;;;36.57;24.66
40872;BME280;26591;43.264;26.940;2023-07-30T12:15:55;98440.38;;;36.58;24.89
40872;BME280;26591;43.264;26.940;2023-07-30T12:18:22;98450.28;;;36.75;25.06
40872;BME280;26591;43.264;26.940;2023-07-30T12:20:51;98446.59;;;36.55;24.53
40872;BME280;26591;43.264;26.940;2023-07-30T12:23:18;98443.50;;;36.88;24.38
40872;BME280;26591;43.264;26.940;2023-07-30T12:25:43;98441.66;;;36.60;24.52
40872;BME280;26591;43.264;26.940;2023-07-30T12:28:09;98431.88;;;36.02;25.43
40872;BME280;26591;43.264;26.940;2023-07-30T12:30:35;98434.53;;;36.59;25.28
40872;BME280;26591;43.264;26.940;2023-07-30T12:33:05;98422.44;;;36.80;25.03
40872;BME280;26591;43.264;26.940;2023-07-30T12:35:31;98424.31;;;36.44;25.36
40872;BME280;26591;43.264;26.940;2023-07-30T12:37:57;98419.13;;;36.26;25.29
40872;BME280;26591;43.264;26.940;2023-07-30T12:40:22;98424.03;;;36.04;25.63
40872;BME280;26591;43.264;26.940;2023-07-30T12:42:48;98415.97;;;35.55;25.97
40872;BME280;26591;43.264;26.940;2023-07-30T12:45:13;98415.78;;;35.76;26.42
40872;BME280;26591;43.264;26.940;2023-07-30T12:47:40;98412.88;;;36.13;25.56